createdAt,value
2019-06-27T00:01:43.359Z,11.17
2019-06-27T00:06:51.932Z,7.80
2019-06-27T00:09:21.246Z,7.07
2019-06-27T00:11:50.811Z,13.17
2019-06-27T00:14:21.190Z,10.07
2019-06-27T00:16:50.101Z,7.83
2019-06-27T00:19:28.222Z,8.17
2019-06-27T00:22:13.843Z,13.33
2019-06-27T00:24:43.996Z,13.83
2019-06-27T00:27:13.519Z,11.50
2019-06-27T00:29:43.028Z,13.80
2019-06-27T00:32:12.721Z,15.40
2019-06-27T00:34:47.398Z,15.10
2019-06-27T00:37:16.426Z,9.33
2019-06-27T00:40:03.367Z,12.30
2019-06-27T00:42:47.056Z,9.87
2019-06-27T00:45:16.913Z,13.50
2019-06-27T00:47:55.508Z,14.33
2019-06-27T00:50:25.078Z,11.47
2019-06-27T00:53:02.543Z,12.73
2019-06-27T00:55:31.848Z,11.83
2019-06-27T00:58:02.345Z,12.30
2019-06-27T01:00:31.324Z,9.33
2019-06-27T01:03:00.888Z,11.43
2019-06-27T01:05:29.790Z,11.33
2019-06-27T01:08:09.715Z,8.57
2019-06-27T01:10:30.387Z,10.70
2019-06-27T01:12:59.938Z,11.97
2019-06-27T01:15:28.930Z,13.13
2019-06-27T01:17:57.819Z,14.47
2019-06-27T01:20:27.382Z,11.10
2019-06-27T01:23:04.304Z,9.83
2019-06-27T01:25:33.868Z,12.23
2019-06-27T01:28:02.754Z,10.70
2019-06-27T01:30:31.971Z,11.17
2019-06-27T01:33:00.909Z,15.07
2019-06-27T01:35:29.794Z,10.13
2019-06-27T01:38:09.208Z,16.60
2019-06-27T01:40:38.783Z,15.70
2019-06-27T01:43:08.430Z,15.73
2019-06-27T01:45:45.186Z,12.43
2019-06-27T01:48:14.167Z,11.67
2019-06-27T01:50:43.405Z,13.53
2019-06-27T01:53:13.218Z,10.43
2019-06-27T01:55:43.464Z,12.70
2019-06-27T01:58:12.872Z,11.17
2019-06-27T02:00:43.236Z,12.43
2019-06-27T02:03:15.642Z,11.00
2019-06-27T02:05:44.527Z,15.20
2019-06-27T02:08:15.573Z,10.13
2019-06-27T02:10:44.550Z,14.57
2019-06-27T02:13:14.928Z,14.40
2019-06-27T02:15:43.830Z,13.03
2019-06-27T02:18:14.041Z,18.67
2019-06-27T02:20:46.643Z,12.33
2019-06-27T02:23:16.930Z,16.00
2019-06-27T02:25:47.516Z,14.83
2019-06-27T02:28:17.329Z,17.17
2019-06-27T02:30:46.977Z,18.17
2019-06-27T02:33:19.655Z,15.83
2019-06-27T02:35:48.818Z,11.60
2019-06-27T02:38:17.708Z,15.87
2019-06-27T02:40:46.702Z,13.47
2019-06-27T02:43:16.734Z,16.80
2019-06-27T02:46:05.081Z,15.13
2019-06-27T02:48:34.593Z,16.90
2019-06-27T02:51:04.701Z,17.13
2019-06-27T02:53:34.252Z,12.63
2019-06-27T02:56:11.105Z,15.80
2019-06-27T02:58:49.459Z,12.80
2019-06-27T03:01:18.668Z,23.00
2019-06-27T03:03:49.517Z,21.07
2019-06-27T03:06:19.443Z,16.23
2019-06-27T03:08:57.819Z,18.10
2019-06-27T03:11:35.859Z,18.53
2019-06-27T03:14:05.411Z,19.43
2019-06-27T03:16:45.466Z,16.43
2019-06-27T03:19:06.727Z,22.33
2019-06-27T03:21:36.555Z,18.10
2019-06-27T03:24:06.124Z,19.67
2019-06-27T03:26:35.412Z,29.97
2019-06-27T03:29:05.388Z,21.77
2019-06-27T03:31:40.780Z,20.30
2019-06-27T03:34:10.292Z,22.60
2019-06-27T03:36:40.592Z,19.17
2019-06-27T03:39:10.235Z,19.67
2019-06-27T03:41:49.477Z,21.53
2019-06-27T03:44:10.635Z,19.77
2019-06-27T03:46:40.292Z,21.27
2019-06-27T03:49:16.078Z,17.77
2019-06-27T03:51:45.114Z,18.53
2019-06-27T03:54:14.682Z,21.33
2019-06-27T03:56:43.571Z,21.87
2019-06-27T03:59:14.049Z,19.40
2019-06-27T04:01:43.716Z,20.70
2019-06-27T04:04:13.259Z,16.83
2019-06-27T04:06:43.075Z,18.87
2019-06-27T04:09:12.641Z,19.47
2019-06-27T04:11:41.595Z,21.90
2019-06-27T04:14:20.226Z,17.17
2019-06-27T04:16:49.674Z,19.40
2019-06-27T04:19:18.711Z,19.90
2019-06-27T04:21:47.981Z,21.50
2019-06-27T04:24:17.536Z,17.80
2019-06-27T04:26:59.029Z,19.47
2019-06-27T04:29:34.216Z,16.93
2019-06-27T04:31:58.459Z,17.30
2019-06-27T04:34:27.478Z,19.03
2019-06-27T04:36:56.691Z,19.40
2019-06-27T04:39:25.584Z,18.37
2019-06-27T04:41:54.582Z,19.77
2019-06-27T04:47:46.087Z,23.83
2019-06-27T04:50:15.640Z,19.93
2019-06-27T04:53:04.671Z,18.57
2019-06-27T04:55:33.595Z,20.13
2019-06-27T04:58:03.141Z,21.50
2019-06-27T05:00:33.150Z,16.00
2019-06-27T05:03:02.661Z,19.23
2019-06-27T05:05:39.689Z,17.63
2019-06-27T05:08:14.036Z,20.60
2019-06-27T05:10:40.651Z,20.03
2019-06-27T05:13:09.652Z,18.20
2019-06-27T05:15:39.492Z,18.50
2019-06-27T05:18:08.392Z,17.83
2019-06-27T05:20:38.070Z,22.67
2019-06-27T05:23:07.610Z,16.33
2019-06-27T05:25:37.173Z,18.20
2019-06-27T05:28:07.382Z,15.67
2019-06-27T05:30:36.503Z,16.63
2019-06-27T05:33:11.566Z,19.30
2019-06-27T05:35:40.674Z,17.13
2019-06-27T05:38:10.039Z,13.70
2019-06-27T05:40:39.055Z,16.47
2019-06-27T05:43:40.343Z,15.53
2019-06-27T05:46:09.446Z,16.90
2019-06-27T05:48:39.859Z,17.93
2019-06-27T05:51:12.594Z,12.13
2019-06-27T05:53:41.500Z,15.43
2019-06-27T05:56:10.463Z,16.33
2019-06-27T05:58:39.619Z,16.87
2019-06-27T06:01:11.673Z,16.80
2019-06-27T06:03:47.873Z,14.60
2019-06-27T06:06:16.770Z,16.90
2019-06-27T06:08:46.788Z,14.60
2019-06-27T06:11:16.922Z,12.37
2019-06-27T06:13:52.518Z,16.20
2019-06-27T06:16:26.851Z,19.13
2019-06-27T06:19:03.663Z,17.73
2019-06-27T06:21:33.548Z,19.73
2019-06-27T06:24:03.374Z,20.67
2019-06-27T06:26:38.382Z,19.07
2019-06-27T06:29:13.494Z,22.63
2019-06-27T06:31:38.135Z,26.80
2019-06-27T06:34:07.310Z,25.80
2019-06-27T06:36:36.814Z,17.60
2019-06-27T06:39:06.394Z,20.63
2019-06-27T06:41:35.982Z,25.55
2019-06-27T06:44:05.605Z,18.17
2019-06-27T06:46:35.153Z,18.23
2019-06-27T06:49:04.756Z,19.92
2019-06-27T06:51:34.312Z,16.07
2019-06-27T06:54:04.198Z,19.65
2019-06-27T06:56:33.111Z,23.00
2019-06-27T06:59:02.021Z,21.45
2019-06-27T07:01:30.905Z,21.77
2019-06-27T07:04:00.197Z,22.07
2019-06-27T07:06:29.106Z,21.63
2019-06-27T07:08:58.362Z,14.28
2019-06-27T07:11:27.345Z,14.55
2019-06-27T07:13:57.742Z,20.88
2019-06-27T07:16:26.929Z,14.87
2019-06-27T07:18:56.599Z,19.10
2019-06-27T07:21:26.165Z,16.93
2019-06-27T07:23:55.070Z,14.45
2019-06-27T07:26:24.662Z,16.67
2019-06-27T07:28:53.566Z,18.17
2019-06-27T07:31:28.587Z,19.82
2019-06-27T07:33:58.282Z,21.05
2019-06-27T07:36:27.168Z,23.65
2019-06-27T07:38:57.012Z,17.52
2019-06-27T07:41:26.017Z,23.20
2019-06-27T07:43:54.901Z,22.48
2019-06-27T07:46:25.652Z,16.40
2019-06-27T07:48:55.291Z,19.62
2019-06-27T07:51:24.625Z,20.30
2019-06-27T07:53:54.167Z,19.65
2019-06-27T07:56:23.107Z,15.03
2019-06-27T07:58:52.687Z,21.93
2019-06-27T08:01:34.421Z,15.90
2019-06-27T08:03:52.946Z,18.15
2019-06-27T08:06:21.806Z,21.37
2019-06-27T08:08:51.726Z,14.23
2019-06-27T08:11:21.446Z,14.30
2019-06-27T08:13:55.730Z,12.23
2019-06-27T08:16:25.382Z,15.70
2019-06-27T08:18:54.266Z,18.82
2019-06-27T08:21:23.163Z,17.55
2019-06-27T08:23:53.083Z,14.63
2019-06-27T08:26:22.019Z,13.65
2019-06-27T08:28:51.642Z,15.45
2019-06-27T08:31:21.356Z,12.68
2019-06-27T08:33:50.580Z,20.57
2019-06-27T08:36:20.133Z,15.85
2019-06-27T08:38:49.819Z,17.45
2019-06-27T08:41:18.718Z,18.05
2019-06-27T08:43:47.619Z,15.18
2019-06-27T08:46:17.341Z,18.57
2019-06-27T08:48:56.354Z,12.40
2019-06-27T08:51:25.287Z,13.40
2019-06-27T08:53:54.181Z,12.33
2019-06-27T08:56:23.567Z,14.85
2019-06-27T08:58:52.558Z,13.55
2019-06-27T09:01:21.414Z,12.10
2019-06-27T09:04:00.039Z,13.05
2019-06-27T09:06:29.590Z,17.35
2019-06-27T09:08:59.627Z,23.62
2019-06-27T09:11:38.018Z,19.12
2019-06-27T09:14:00.794Z,18.75
2019-06-27T09:16:30.050Z,17.95
2019-06-27T09:18:59.087Z,17.15
2019-06-27T09:21:28.699Z,16.70
2019-06-27T09:24:04.867Z,17.90
2019-06-27T09:26:33.755Z,20.85
2019-06-27T09:29:03.330Z,15.83
2019-06-27T09:31:32.897Z,15.28
2019-06-27T09:34:21.526Z,22.98
2019-06-27T09:36:50.232Z,18.35
2019-06-27T09:39:20.070Z,21.15
2019-06-27T09:41:49.621Z,14.50
2019-06-27T09:44:19.219Z,22.32
2019-06-27T09:47:05.891Z,23.73
2019-06-27T09:49:35.147Z,18.70
2019-06-27T09:52:21.822Z,23.23
2019-06-27T09:54:51.450Z,22.98
2019-06-27T09:57:22.222Z,17.62
2019-06-27T09:59:51.133Z,17.70
2019-06-27T10:02:20.135Z,22.02
2019-06-27T10:04:49.693Z,15.65
2019-06-27T10:07:19.576Z,12.37
2019-06-27T10:09:48.578Z,27.77
2019-06-27T10:12:18.145Z,13.80
2019-06-27T10:14:48.157Z,13.48
2019-06-27T10:17:25.682Z,17.27
2019-06-27T10:19:54.869Z,13.90
2019-06-27T10:22:23.786Z,21.20
2019-06-27T10:24:53.393Z,15.35
2019-06-27T10:27:22.292Z,16.45
2019-06-27T10:29:51.195Z,17.30
2019-06-27T10:32:20.873Z,17.73
2019-06-27T10:34:50.043Z,17.37
2019-06-27T10:37:19.607Z,13.85
2019-06-27T10:39:49.298Z,17.57
2019-06-27T10:42:19.149Z,13.58
2019-06-27T10:44:48.721Z,14.60
2019-06-27T10:47:17.845Z,15.95
2019-06-27T10:49:47.422Z,15.23
2019-06-27T10:52:16.326Z,14.40
2019-06-27T10:54:45.534Z,15.00
2019-06-27T10:57:15.128Z,13.43
2019-06-27T10:59:44.676Z,15.83
2019-06-27T11:02:13.666Z,10.63
2019-06-27T11:04:43.245Z,8.48
2019-06-27T11:07:12.806Z,12.68
2019-06-27T11:09:42.847Z,8.83
2019-06-27T11:12:12.413Z,10.20
2019-06-27T11:14:55.200Z,13.55
2019-06-27T11:17:13.153Z,10.38
2019-06-27T11:19:52.482Z,11.22
2019-06-27T11:22:13.381Z,9.95
2019-06-27T11:24:51.238Z,14.18
2019-06-27T11:27:20.226Z,10.23
2019-06-27T11:29:49.147Z,10.05
2019-06-27T11:32:26.913Z,11.15
2019-06-27T11:34:56.635Z,7.95
2019-06-27T11:37:26.169Z,9.83
2019-06-27T11:39:55.314Z,7.28
2019-06-27T11:42:24.355Z,7.65
2019-06-27T11:44:54.723Z,9.35
2019-06-27T11:47:27.178Z,7.20
2019-06-27T11:50:02.380Z,12.10
2019-06-27T11:52:38.462Z,7.22
2019-06-27T11:55:07.672Z,9.73
2019-06-27T11:57:36.853Z,6.67
2019-06-27T12:00:10.989Z,7.90
2019-06-27T12:02:40.827Z,8.38
2019-06-27T12:05:10.495Z,12.28
2019-06-27T12:07:39.936Z,9.15
2019-06-27T12:10:09.878Z,9.28
2019-06-27T12:12:38.763Z,8.00
2019-06-27T12:15:09.599Z,6.90
2019-06-27T12:17:39.365Z,8.45
2019-06-27T12:20:09.863Z,13.58
2019-06-27T12:22:40.463Z,9.75
2019-06-27T12:25:11.075Z,9.38
2019-06-27T12:27:40.202Z,7.33
2019-06-27T12:30:10.376Z,7.62
2019-06-27T12:32:51.264Z,9.73
2019-06-27T12:35:10.267Z,10.03
2019-06-27T12:37:40.087Z,6.17
2019-06-27T12:40:18.123Z,10.72
2019-06-27T12:42:56.712Z,11.95
2019-06-27T12:45:26.690Z,8.45
2019-06-27T12:48:07.276Z,11.28
2019-06-27T12:50:35.034Z,9.03
2019-06-27T12:53:10.663Z,9.33
2019-06-27T12:55:39.582Z,16.73
2019-06-27T12:58:08.935Z,10.95
2019-06-27T13:00:39.009Z,5.75
2019-06-27T13:03:08.115Z,9.95
2019-06-27T13:05:43.922Z,7.28
2019-06-27T13:08:13.825Z,11.15
2019-06-27T13:10:43.577Z,10.45
2019-06-27T13:13:12.586Z,10.32
2019-06-27T13:15:50.838Z,9.78
2019-06-27T13:18:20.847Z,10.48
2019-06-27T13:20:57.928Z,9.57
2019-06-27T13:23:21.093Z,15.70
2019-06-27T13:25:50.366Z,9.78
2019-06-27T13:28:19.916Z,13.43
2019-06-27T13:30:48.840Z,9.93
2019-06-27T13:33:18.699Z,7.45
2019-06-27T13:35:49.197Z,9.35
2019-06-27T13:38:18.999Z,9.95
2019-06-27T13:40:48.195Z,6.05
2019-06-27T13:43:19.561Z,8.75
2019-06-27T13:45:48.652Z,8.15
2019-06-27T13:48:26.853Z,6.05
2019-06-27T13:50:57.822Z,8.60
2019-06-27T13:53:27.924Z,8.68
2019-06-27T13:55:56.823Z,7.47
2019-06-27T13:58:25.735Z,8.13
2019-06-27T14:00:55.242Z,15.68
2019-06-27T14:03:24.280Z,9.15
2019-06-27T14:06:11.106Z,13.05
2019-06-27T14:08:44.624Z,10.95
2019-06-27T14:11:14.313Z,10.75
2019-06-27T14:13:43.866Z,9.10
2019-06-27T14:16:14.927Z,11.65
2019-06-27T14:18:43.932Z,11.33
2019-06-27T14:21:13.487Z,9.45
2019-06-27T14:23:43.038Z,7.30
2019-06-27T14:26:13.014Z,9.90
2019-06-27T14:28:42.348Z,8.90
2019-06-27T14:31:11.218Z,6.40
2019-06-27T14:33:40.827Z,9.40
2019-06-27T14:36:09.791Z,7.42
2019-06-27T14:38:43.342Z,8.70
2019-06-27T14:41:10.659Z,7.28
2019-06-27T14:43:39.567Z,9.03
2019-06-27T14:46:08.519Z,11.73
2019-06-27T14:48:38.167Z,8.33
2019-06-27T14:51:08.391Z,10.38
2019-06-27T14:53:37.379Z,7.55
2019-06-27T14:56:06.292Z,6.10
2019-06-27T14:58:35.199Z,8.18
2019-06-27T15:01:08.455Z,12.40
2019-06-27T15:03:44.911Z,8.60
2019-06-27T15:06:17.465Z,11.20
2019-06-27T15:08:47.079Z,8.83
2019-06-27T15:11:17.131Z,7.45
2019-06-27T15:13:49.573Z,7.65
2019-06-27T15:16:36.950Z,13.00
2019-06-27T15:19:05.901Z,10.25
2019-06-27T15:21:35.170Z,9.80
2019-06-27T15:24:14.013Z,8.23
2019-06-27T15:26:43.694Z,12.03
2019-06-27T15:29:15.226Z,11.45
2019-06-27T15:31:44.855Z,8.13
2019-06-27T15:34:13.750Z,5.78
2019-06-27T15:36:43.314Z,9.25
2019-06-27T15:39:30.679Z,7.53
2019-06-27T15:41:59.980Z,6.87
2019-06-27T15:44:35.983Z,5.70
2019-06-27T15:47:01.213Z,6.47
2019-06-27T15:49:30.298Z,10.55
2019-06-27T15:52:00.096Z,7.50
2019-06-27T15:54:29.491Z,7.78
2019-06-27T15:56:59.063Z,6.30
2019-06-27T15:59:28.640Z,9.95
2019-06-27T16:01:57.998Z,14.10
2019-06-27T16:04:32.744Z,5.85
2019-06-27T16:06:58.748Z,7.20
2019-06-27T16:09:28.422Z,7.67
2019-06-27T16:11:57.327Z,10.50
2019-06-27T16:14:33.014Z,8.88
2019-06-27T16:17:02.906Z,8.30
2019-06-27T16:19:31.805Z,5.78
2019-06-27T16:22:01.307Z,8.98
2019-06-27T16:24:30.228Z,7.25
2019-06-27T16:26:59.441Z,12.95
2019-06-27T16:29:29.007Z,10.55
2019-06-27T16:31:58.566Z,9.93
2019-06-27T16:34:29.125Z,7.53
2019-06-27T16:37:03.571Z,10.70
2019-06-27T16:39:33.034Z,7.28
2019-06-27T16:42:02.736Z,6.70
2019-06-27T16:44:32.194Z,5.05
2019-06-27T16:47:01.216Z,8.70
2019-06-27T16:49:30.147Z,7.28
2019-06-27T16:52:11.558Z,6.55
2019-06-27T16:54:41.155Z,7.92
2019-06-27T16:57:10.718Z,6.87
2019-06-27T16:59:39.899Z,4.90
2019-06-27T17:02:08.967Z,8.88
2019-06-27T17:04:37.856Z,4.47
2019-06-27T17:07:06.751Z,7.33
2019-06-27T17:09:35.776Z,8.23
2019-06-27T17:12:04.981Z,8.85
2019-06-27T17:14:34.553Z,5.97
2019-06-27T17:17:04.210Z,8.05
2019-06-27T17:19:34.249Z,6.33
2019-06-27T17:22:12.270Z,10.63
2019-06-27T17:24:41.815Z,10.90
2019-06-27T17:27:11.770Z,12.75
2019-06-27T17:29:50.717Z,6.90
2019-06-27T17:32:20.685Z,11.43
2019-06-27T17:34:50.411Z,13.45
2019-06-27T17:37:21.223Z,9.75
2019-06-27T17:40:19.345Z,7.35
2019-06-27T17:42:49.010Z,4.50
2019-06-27T17:45:18.660Z,6.12
2019-06-27T17:47:47.990Z,9.83
2019-06-27T17:50:24.096Z,8.48
2019-06-27T17:52:56.383Z,9.65
2019-06-27T17:55:25.776Z,6.40
2019-06-27T17:58:12.509Z,5.35
2019-06-27T18:00:51.090Z,11.03
2019-06-27T18:03:25.348Z,5.53
2019-06-27T18:05:56.079Z,7.42
2019-06-27T18:08:25.087Z,11.93
2019-06-27T18:10:54.330Z,9.37
2019-06-27T18:13:32.582Z,6.65
2019-06-27T18:16:01.725Z,6.20
2019-06-27T18:18:31.353Z,9.40
2019-06-27T18:21:09.938Z,6.83
2019-06-27T18:23:39.018Z,7.65
2019-06-27T18:26:07.929Z,12.50
2019-06-27T18:28:37.260Z,11.93
2019-06-27T18:31:15.943Z,6.40
2019-06-27T18:33:45.182Z,8.20
2019-06-27T18:36:19.643Z,10.82
2019-06-27T18:38:54.197Z,5.10
2019-06-27T18:41:21.376Z,5.85
2019-06-27T18:43:54.250Z,5.55
2019-06-27T18:46:32.163Z,5.20
2019-06-27T18:49:06.813Z,5.87
2019-06-27T18:51:35.744Z,9.03
2019-06-27T18:54:05.544Z,9.03
2019-06-27T18:56:35.085Z,5.00
2019-06-27T18:59:05.106Z,7.33
2019-06-27T19:01:34.677Z,8.05
2019-06-27T19:04:04.230Z,6.05
2019-06-27T19:06:33.131Z,7.12
2019-06-27T19:09:02.179Z,7.58
2019-06-27T19:11:32.003Z,7.20
2019-06-27T19:14:00.902Z,8.20
2019-06-27T19:16:29.995Z,9.35
2019-06-27T19:19:00.176Z,6.97
2019-06-27T19:21:43.494Z,6.70
2019-06-27T19:24:49.571Z,8.50
2019-06-27T19:27:19.330Z,8.08
2019-06-27T19:29:48.547Z,8.63
2019-06-27T19:32:17.426Z,8.03
2019-06-27T19:34:48.063Z,13.97
2019-06-27T19:37:35.194Z,10.23
2019-06-27T19:40:04.655Z,7.83
2019-06-27T19:42:33.682Z,9.03
2019-06-27T19:45:18.310Z,9.33
2019-06-27T19:47:55.767Z,10.17
2019-06-27T19:50:25.437Z,10.10
2019-06-27T19:53:00.379Z,6.70
2019-06-27T19:55:29.326Z,7.07
2019-06-27T19:57:58.874Z,11.27
2019-06-27T20:00:28.749Z,11.87
2019-06-27T20:03:01.637Z,7.43
2019-06-27T20:05:38.898Z,8.97
2019-06-27T20:08:18.600Z,5.50
2019-06-27T20:10:38.902Z,7.87
2019-06-27T20:13:09.691Z,9.37
2019-06-27T20:15:39.703Z,5.77
2019-06-27T20:18:08.614Z,12.20
2019-06-27T20:20:43.152Z,7.37
2019-06-27T20:23:12.665Z,4.70
2019-06-27T20:25:41.617Z,7.20
2019-06-27T20:28:11.439Z,7.67
2019-06-27T20:30:40.978Z,6.17
2019-06-27T20:33:10.342Z,6.80
2019-06-27T20:35:39.464Z,7.40
2019-06-27T20:38:09.053Z,6.23
2019-06-27T20:40:37.989Z,8.27
2019-06-27T20:43:08.870Z,6.87
2019-06-27T20:45:56.158Z,11.43
2019-06-27T20:48:25.292Z,4.83
2019-06-27T20:50:56.315Z,7.57
2019-06-27T20:53:25.722Z,8.50
2019-06-27T20:56:09.051Z,5.67
2019-06-27T20:58:37.925Z,5.70
2019-06-27T21:01:07.290Z,8.20
2019-06-27T21:03:36.337Z,6.80
2019-06-27T21:06:08.703Z,5.17
2019-06-27T21:08:50.858Z,6.90
2019-06-27T21:11:08.717Z,8.63
2019-06-27T21:13:37.734Z,6.53
2019-06-27T21:16:06.647Z,7.13
2019-06-27T21:18:36.347Z,6.33
2019-06-27T21:21:05.948Z,5.97
2019-06-27T21:23:36.017Z,5.80
2019-06-27T21:26:05.698Z,6.30
2019-06-27T21:28:38.163Z,6.63
2019-06-27T21:31:07.743Z,7.50
2019-06-27T21:33:37.102Z,5.83
2019-06-27T21:36:09.601Z,12.10
2019-06-27T21:38:46.681Z,7.67
2019-06-27T21:41:18.928Z,7.10
2019-06-27T21:43:56.805Z,7.13
2019-06-27T21:46:25.874Z,6.27
2019-06-27T21:48:55.830Z,6.03
2019-06-27T21:51:25.370Z,5.83
2019-06-27T21:53:55.051Z,8.33
2019-06-27T21:56:23.932Z,6.80
2019-06-27T21:58:52.805Z,8.53
2019-06-27T22:01:22.554Z,6.63
2019-06-27T22:03:59.503Z,8.63
2019-06-27T22:06:28.878Z,4.50
2019-06-27T22:08:57.727Z,9.17
2019-06-27T22:11:27.849Z,7.30
2019-06-27T22:13:56.815Z,6.63
2019-06-27T22:16:26.709Z,11.97
2019-06-27T22:18:56.266Z,10.17
2019-06-27T22:21:26.504Z,10.20
2019-06-27T22:23:56.581Z,7.10
2019-06-27T22:26:26.099Z,6.87
2019-06-27T22:29:03.011Z,7.53
2019-06-27T22:31:39.538Z,7.50
2019-06-27T22:34:09.185Z,11.77
2019-06-27T22:36:38.737Z,10.97
2019-06-27T22:39:39.613Z,4.67
2019-06-27T22:42:14.254Z,5.27
2019-06-27T22:45:00.982Z,7.07
2019-06-27T22:47:47.517Z,7.97
2019-06-27T22:50:31.457Z,8.10
2019-06-27T22:53:07.134Z,8.17
2019-06-27T22:55:36.707Z,8.03
2019-06-27T22:58:07.338Z,6.33
2019-06-27T23:00:36.335Z,6.40
2019-06-27T23:03:05.352Z,6.77
2019-06-27T23:05:35.771Z,6.83
2019-06-27T23:10:41.232Z,5.80
2019-06-27T23:13:17.502Z,9.17
2019-06-27T23:15:46.502Z,5.63
2019-06-27T23:18:15.894Z,6.40
2019-06-27T23:20:44.818Z,11.60
2019-06-27T23:23:13.909Z,6.67
2019-06-27T23:28:25.213Z,8.83
2019-06-27T23:30:54.230Z,8.07
2019-06-27T23:33:23.169Z,5.20
2019-06-27T23:35:52.729Z,5.50
2019-06-27T23:38:22.265Z,4.50
2019-06-27T23:40:51.151Z,5.10
2019-06-27T23:43:21.301Z,9.33
2019-06-27T23:45:50.537Z,5.27
2019-06-27T23:48:20.559Z,6.97
2019-06-27T23:50:49.903Z,5.20
2019-06-27T23:53:19.438Z,6.13
2019-06-27T23:55:49.021Z,7.23
2019-06-27T23:58:18.022Z,8.63
